createdAt,value
2019-06-27T00:01:13.107Z,23.50
2019-06-27T00:03:40.826Z,23.50
2019-06-27T00:06:08.372Z,23.40
2019-06-27T00:08:35.851Z,23.40
2019-06-27T00:11:03.433Z,23.40
2019-06-27T00:13:31.107Z,23.30
2019-06-27T00:15:58.651Z,23.30
2019-06-27T00:18:26.466Z,23.20
2019-06-27T00:20:57.303Z,23.20
2019-06-27T00:23:24.826Z,23.20
2019-06-27T00:25:52.157Z,23.20
2019-06-27T00:28:19.655Z,23.10
2019-06-27T00:30:47.273Z,23.10
2019-06-27T00:33:15.088Z,23.10
2019-06-27T00:35:42.711Z,23.10
2019-06-27T00:38:10.367Z,23.10
2019-06-27T00:40:37.959Z,23.00
2019-06-27T00:43:05.423Z,23.00
2019-06-27T00:45:33.140Z,22.90
2019-06-27T00:48:00.875Z,22.90
2019-06-27T00:50:28.507Z,22.80
2019-06-27T00:52:55.863Z,22.80
2019-06-27T00:55:23.642Z,22.80
2019-06-27T00:57:51.002Z,22.70
2019-06-27T01:00:18.677Z,22.70
2019-06-27T01:02:45.938Z,22.60
2019-06-27T01:05:13.662Z,22.60
2019-06-27T01:07:41.528Z,22.50
2019-06-27T01:10:08.995Z,22.50
2019-06-27T01:12:36.250Z,22.50
2019-06-27T01:15:03.984Z,22.50
2019-06-27T01:17:31.734Z,22.40
2019-06-27T01:19:59.262Z,22.40
2019-06-27T01:22:26.696Z,22.40
2019-06-27T01:24:54.291Z,22.30
2019-06-27T01:27:29.994Z,22.20
2019-06-27T01:29:50.995Z,22.20
2019-06-27T01:32:18.490Z,22.20
2019-06-27T01:34:46.135Z,22.20
2019-06-27T01:37:13.607Z,22.10
2019-06-27T01:39:40.886Z,22.10
2019-06-27T01:42:08.163Z,22.00
2019-06-27T01:45:00.959Z,21.90
2019-06-27T01:47:28.880Z,21.90
2019-06-27T01:49:56.358Z,21.90
2019-06-27T01:52:23.660Z,21.80
2019-06-27T01:54:50.923Z,21.80
2019-06-27T01:57:18.339Z,21.70
2019-06-27T01:59:45.563Z,21.70
2019-06-27T02:02:13.232Z,21.60
2019-06-27T02:04:40.850Z,21.60
2019-06-27T02:07:08.368Z,21.50
2019-06-27T02:09:35.871Z,21.50
2019-06-27T02:12:03.531Z,21.40
2019-06-27T02:14:31.639Z,21.40
2019-06-27T02:16:59.582Z,21.40
2019-06-27T02:19:26.831Z,21.30
2019-06-27T02:21:54.511Z,21.30
2019-06-27T02:24:22.287Z,21.20
2019-06-27T02:26:49.617Z,21.20
2019-06-27T02:29:16.839Z,21.10
2019-06-27T02:31:44.512Z,21.10
2019-06-27T02:34:11.707Z,21.00
2019-06-27T02:36:39.121Z,21.00
2019-06-27T02:39:06.493Z,21.00
2019-06-27T02:41:34.133Z,21.00
2019-06-27T02:44:01.598Z,20.90
2019-06-27T02:46:29.207Z,20.90
2019-06-27T02:48:56.707Z,20.90
2019-06-27T02:51:24.484Z,20.80
2019-06-27T02:53:51.868Z,20.80
2019-06-27T02:56:19.414Z,20.80
2019-06-27T02:58:47.188Z,20.80
2019-06-27T03:01:14.963Z,20.70
2019-06-27T03:03:42.227Z,20.70
2019-06-27T03:06:09.584Z,20.60
2019-06-27T03:08:36.888Z,20.60
2019-06-27T03:11:04.610Z,20.50
2019-06-27T03:13:31.889Z,20.50
2019-06-27T03:15:59.836Z,20.40
2019-06-27T03:18:27.414Z,20.40
2019-06-27T03:20:55.259Z,20.40
2019-06-27T03:23:23.076Z,20.40
2019-06-27T03:25:50.735Z,20.30
2019-06-27T03:28:18.343Z,20.30
2019-06-27T03:30:45.700Z,20.30
2019-06-27T03:33:13.263Z,20.30
2019-06-27T03:35:40.908Z,20.20
2019-06-27T03:38:08.375Z,20.10
2019-06-27T03:40:36.379Z,20.10
2019-06-27T03:43:04.008Z,20.00
2019-06-27T03:45:31.780Z,20.00
2019-06-27T03:47:59.030Z,20.00
2019-06-27T03:50:26.387Z,20.00
2019-06-27T03:52:53.789Z,19.90
2019-06-27T03:55:21.170Z,19.90
2019-06-27T03:57:48.581Z,19.90
2019-06-27T04:00:23.440Z,19.90
2019-06-27T04:02:50.989Z,19.80
2019-06-27T04:05:18.477Z,19.80
2019-06-27T04:07:45.837Z,19.80
2019-06-27T04:10:17.053Z,19.80
2019-06-27T04:12:42.979Z,19.80
2019-06-27T04:15:10.499Z,19.80
2019-06-27T04:17:38.079Z,19.80
2019-06-27T04:20:05.790Z,19.70
2019-06-27T04:22:33.155Z,19.70
2019-06-27T04:25:00.434Z,19.70
2019-06-27T04:27:28.329Z,19.70
2019-06-27T04:29:55.822Z,19.80
2019-06-27T04:32:23.619Z,19.80
2019-06-27T04:34:51.107Z,19.80
2019-06-27T04:37:18.346Z,19.80
2019-06-27T04:39:46.228Z,19.80
2019-06-27T04:42:13.439Z,19.70
2019-06-27T04:44:41.103Z,19.70
2019-06-27T04:47:08.968Z,19.70
2019-06-27T04:49:37.107Z,19.70
2019-06-27T04:52:04.375Z,19.70
2019-06-27T04:54:32.156Z,19.70
2019-06-27T04:56:59.786Z,19.80
2019-06-27T04:59:27.585Z,19.70
2019-06-27T05:01:55.630Z,19.80
2019-06-27T05:04:23.519Z,19.70
2019-06-27T05:06:51.398Z,19.80
2019-06-27T05:09:19.537Z,19.80
2019-06-27T05:11:47.160Z,19.80
2019-06-27T05:14:14.700Z,19.80
2019-06-27T05:16:42.179Z,19.80
2019-06-27T05:19:10.219Z,19.80
2019-06-27T05:21:37.474Z,19.90
2019-06-27T05:24:05.259Z,19.90
2019-06-27T05:26:32.843Z,19.90
2019-06-27T05:29:00.574Z,19.90
2019-06-27T05:31:28.055Z,20.00
2019-06-27T05:33:55.711Z,20.00
2019-06-27T05:36:23.246Z,20.00
2019-06-27T05:38:50.531Z,20.10
2019-06-27T05:41:17.978Z,20.10
2019-06-27T05:43:45.748Z,20.10
2019-06-27T05:46:13.229Z,20.10
2019-06-27T05:48:40.874Z,20.10
2019-06-27T05:51:08.239Z,20.10
2019-06-27T05:53:35.737Z,20.10
2019-06-27T05:56:03.117Z,20.10
2019-06-27T05:58:30.646Z,20.20
2019-06-27T06:00:58.131Z,20.20
2019-06-27T06:03:25.691Z,20.20
2019-06-27T06:05:53.355Z,20.30
2019-06-27T06:08:20.581Z,20.30
2019-06-27T06:10:48.098Z,20.30
2019-06-27T06:13:15.685Z,20.30
2019-06-27T06:15:43.430Z,20.20
2019-06-27T06:18:10.619Z,20.20
2019-06-27T06:20:37.973Z,20.20
2019-06-27T06:23:05.586Z,20.20
2019-06-27T06:25:32.864Z,20.30
2019-06-27T06:28:00.638Z,20.20
2019-06-27T06:30:43.323Z,20.30
2019-06-27T06:32:57.559Z,20.30
2019-06-27T06:35:25.623Z,20.30
2019-06-27T06:37:53.723Z,20.40
2019-06-27T06:40:21.512Z,20.40
2019-06-27T06:42:49.013Z,20.50
2019-06-27T06:45:16.263Z,20.50
2019-06-27T06:47:43.735Z,20.60
2019-06-27T06:50:10.972Z,20.70
2019-06-27T06:52:38.509Z,20.70
2019-06-27T06:55:05.946Z,20.70
2019-06-27T06:57:33.254Z,20.80
2019-06-27T07:00:00.773Z,20.90
2019-06-27T07:02:28.570Z,20.90
2019-06-27T07:04:56.060Z,21.00
2019-06-27T07:07:23.323Z,21.00
2019-06-27T07:09:51.101Z,21.10
2019-06-27T07:12:18.718Z,21.10
2019-06-27T07:14:46.314Z,21.10
2019-06-27T07:17:14.083Z,21.20
2019-06-27T07:19:41.336Z,21.20
2019-06-27T07:22:08.887Z,21.20
2019-06-27T07:24:36.228Z,21.20
2019-06-27T07:27:04.024Z,21.30
2019-06-27T07:29:31.691Z,21.30
2019-06-27T07:31:59.462Z,21.40
2019-06-27T07:34:27.067Z,21.40
2019-06-27T07:36:54.802Z,21.40
2019-06-27T07:39:22.058Z,21.40
2019-06-27T07:41:49.341Z,21.40
2019-06-27T07:44:20.071Z,21.40
2019-06-27T07:46:46.409Z,21.50
2019-06-27T07:49:14.278Z,21.50
2019-06-27T07:51:42.256Z,21.50
2019-06-27T07:54:09.581Z,21.50
2019-06-27T07:56:37.196Z,21.50
2019-06-27T07:59:04.535Z,21.60
2019-06-27T08:01:35.746Z,21.60
2019-06-27T08:04:02.111Z,21.70
2019-06-27T08:06:29.637Z,21.70
2019-06-27T08:08:57.126Z,21.70
2019-06-27T08:11:25.148Z,21.70
2019-06-27T08:13:52.646Z,21.70
2019-06-27T08:16:20.425Z,21.80
2019-06-27T08:18:48.025Z,21.80
2019-06-27T08:21:15.257Z,21.80
2019-06-27T08:23:43.510Z,21.80
2019-06-27T08:26:10.770Z,21.90
2019-06-27T08:28:38.324Z,21.90
2019-06-27T08:31:05.887Z,22.00
2019-06-27T08:33:33.635Z,22.00
2019-06-27T08:36:01.294Z,22.10
2019-06-27T08:38:28.765Z,22.10
2019-06-27T08:40:56.388Z,22.20
2019-06-27T08:43:23.997Z,22.20
2019-06-27T08:45:51.715Z,22.30
2019-06-27T08:48:19.339Z,22.30
2019-06-27T08:50:46.835Z,22.30
2019-06-27T08:53:14.730Z,22.40
2019-06-27T08:55:42.471Z,22.40
2019-06-27T08:58:10.383Z,22.50
2019-06-27T09:00:38.402Z,22.50
2019-06-27T09:03:06.198Z,22.60
2019-06-27T09:05:34.006Z,22.60
2019-06-27T09:08:01.579Z,22.70
2019-06-27T09:10:28.974Z,22.70
2019-06-27T09:12:56.587Z,22.80
2019-06-27T09:15:23.987Z,22.80
2019-06-27T09:17:51.518Z,22.90
2019-06-27T09:20:18.933Z,22.90
2019-06-27T09:22:46.971Z,22.90
2019-06-27T09:25:14.215Z,23.00
2019-06-27T09:27:41.733Z,23.10
2019-06-27T09:30:09.726Z,23.10
2019-06-27T09:32:37.349Z,23.10
2019-06-27T09:35:04.744Z,23.20
2019-06-27T09:37:32.240Z,23.30
2019-06-27T09:39:59.743Z,23.30
2019-06-27T09:42:27.103Z,23.40
2019-06-27T09:44:54.675Z,23.50
2019-06-27T09:47:22.138Z,23.60
2019-06-27T09:49:49.947Z,23.60
2019-06-27T09:52:17.701Z,23.70
2019-06-27T09:54:45.735Z,23.80
2019-06-27T09:57:13.076Z,23.80
2019-06-27T09:59:40.467Z,23.90
2019-06-27T10:02:08.136Z,23.90
2019-06-27T10:04:35.678Z,24.00
2019-06-27T10:07:02.942Z,24.10
2019-06-27T10:09:30.880Z,24.10
2019-06-27T10:11:58.367Z,24.10
2019-06-27T10:14:25.916Z,24.20
2019-06-27T10:16:53.527Z,24.20
2019-06-27T10:19:20.768Z,24.30
2019-06-27T10:21:48.642Z,24.30
2019-06-27T10:24:16.205Z,24.40
2019-06-27T10:26:43.486Z,24.40
2019-06-27T10:29:11.010Z,24.50
2019-06-27T10:31:38.281Z,24.60
2019-06-27T10:34:05.926Z,24.60
2019-06-27T10:36:34.220Z,24.70
2019-06-27T10:39:01.551Z,24.70
2019-06-27T10:41:29.015Z,24.80
2019-06-27T10:43:58.514Z,24.80
2019-06-27T10:46:26.165Z,24.90
2019-06-27T10:48:53.639Z,24.90
2019-06-27T10:51:21.293Z,25.00
2019-06-27T10:53:48.547Z,25.00
2019-06-27T10:56:16.367Z,25.10
2019-06-27T10:58:44.191Z,25.10
2019-06-27T11:01:11.534Z,25.20
2019-06-27T11:03:39.090Z,25.30
2019-06-27T11:06:06.763Z,25.40
2019-06-27T11:08:34.403Z,25.50
2019-06-27T11:11:01.943Z,25.50
2019-06-27T11:13:29.570Z,25.60
2019-06-27T11:15:57.139Z,25.70
2019-06-27T11:18:24.725Z,25.80
2019-06-27T11:20:52.682Z,25.90
2019-06-27T11:23:20.167Z,26.00
2019-06-27T11:25:47.510Z,26.10
2019-06-27T11:28:15.412Z,26.20
2019-06-27T11:30:43.382Z,26.30
2019-06-27T11:33:10.900Z,26.40
2019-06-27T11:35:38.263Z,26.50
2019-06-27T11:38:05.553Z,26.60
2019-06-27T11:40:33.909Z,26.70
2019-06-27T11:43:01.882Z,26.70
2019-06-27T11:45:29.580Z,26.80
2019-06-27T11:47:57.332Z,26.90
2019-06-27T11:50:24.922Z,27.00
2019-06-27T11:52:52.482Z,27.00
2019-06-27T11:55:19.830Z,27.10
2019-06-27T11:57:47.074Z,27.10
2019-06-27T12:00:15.058Z,27.20
2019-06-27T12:02:43.159Z,27.30
2019-06-27T12:05:11.006Z,27.30
2019-06-27T12:07:38.253Z,27.30
2019-06-27T12:10:05.707Z,27.30
2019-06-27T12:12:33.604Z,27.30
2019-06-27T12:15:01.127Z,27.40
2019-06-27T12:17:28.536Z,27.40
2019-06-27T12:19:56.826Z,27.40
2019-06-27T12:22:24.475Z,27.50
2019-06-27T12:24:52.097Z,27.50
2019-06-27T12:27:19.581Z,27.60
2019-06-27T12:29:47.041Z,27.70
2019-06-27T12:32:14.281Z,27.80
2019-06-27T12:34:41.844Z,27.80
2019-06-27T12:37:09.326Z,27.80
2019-06-27T12:39:36.851Z,27.90
2019-06-27T12:42:04.429Z,27.80
2019-06-27T12:44:31.982Z,27.90
2019-06-27T12:46:59.824Z,27.90
2019-06-27T12:49:49.709Z,27.90
2019-06-27T12:51:56.230Z,28.00
2019-06-27T12:54:23.803Z,28.00
2019-06-27T12:56:51.413Z,28.10
2019-06-27T12:59:19.253Z,28.20
2019-06-27T13:01:46.695Z,28.20
2019-06-27T13:04:23.290Z,28.30
2019-06-27T13:06:43.416Z,28.40
2019-06-27T13:09:10.795Z,28.40
2019-06-27T13:11:38.596Z,28.40
2019-06-27T13:14:06.246Z,28.50
2019-06-27T13:16:33.571Z,28.50
2019-06-27T13:19:01.420Z,28.50
2019-06-27T13:21:28.746Z,28.50
2019-06-27T13:23:56.071Z,28.50
2019-06-27T13:26:23.854Z,28.50
2019-06-27T13:28:51.731Z,28.50
2019-06-27T13:31:19.091Z,28.50
2019-06-27T13:33:46.622Z,28.50
2019-06-27T13:36:14.397Z,28.50
2019-06-27T13:38:41.623Z,28.60
2019-06-27T13:41:09.216Z,28.60
2019-06-27T13:43:37.038Z,28.70
2019-06-27T13:46:04.925Z,28.70
2019-06-27T13:48:32.810Z,28.70
2019-06-27T13:51:00.138Z,28.80
2019-06-27T13:53:27.890Z,28.80
2019-06-27T13:55:55.770Z,28.80
2019-06-27T13:58:23.395Z,28.90
2019-06-27T14:00:51.263Z,28.90
2019-06-27T14:03:18.903Z,28.80
2019-06-27T14:05:46.941Z,28.80
2019-06-27T14:08:14.814Z,28.80
2019-06-27T14:10:42.643Z,28.80
2019-06-27T14:13:10.121Z,28.80
2019-06-27T14:15:38.126Z,28.90
2019-06-27T14:18:05.910Z,28.90
2019-06-27T14:20:33.426Z,28.90
2019-06-27T14:23:01.194Z,28.90
2019-06-27T14:25:28.748Z,28.80
2019-06-27T14:27:56.059Z,28.80
2019-06-27T14:30:24.084Z,28.80
2019-06-27T14:32:53.458Z,28.80
2019-06-27T14:35:21.230Z,28.80
2019-06-27T14:37:48.734Z,28.90
2019-06-27T14:40:17.257Z,28.90
2019-06-27T14:42:44.506Z,28.90
2019-06-27T14:45:11.860Z,28.90
2019-06-27T14:47:39.452Z,28.90
2019-06-27T14:50:06.856Z,28.90
2019-06-27T14:52:35.099Z,28.90
2019-06-27T14:55:02.844Z,28.90
2019-06-27T14:57:30.447Z,28.90
2019-06-27T14:59:58.209Z,28.80
2019-06-27T15:02:25.755Z,28.80
2019-06-27T15:04:53.636Z,28.80
2019-06-27T15:07:21.145Z,28.80
2019-06-27T15:09:48.920Z,28.80
2019-06-27T15:12:16.559Z,28.80
2019-06-27T15:14:44.535Z,28.80
2019-06-27T15:17:11.886Z,28.70
2019-06-27T15:19:39.755Z,28.70
2019-06-27T15:22:07.357Z,28.70
2019-06-27T15:24:34.773Z,28.60
2019-06-27T15:27:02.450Z,28.60
2019-06-27T15:29:29.853Z,28.60
2019-06-27T15:31:57.618Z,28.60
2019-06-27T15:34:24.973Z,28.50
2019-06-27T15:36:52.578Z,28.50
2019-06-27T15:39:20.090Z,28.40
2019-06-27T15:41:47.793Z,28.40
2019-06-27T15:44:15.742Z,28.40
2019-06-27T15:46:43.018Z,28.30
2019-06-27T15:49:10.726Z,28.30
2019-06-27T15:51:38.486Z,28.30
2019-06-27T15:54:05.836Z,28.30
2019-06-27T15:56:33.167Z,28.30
2019-06-27T15:59:03.615Z,28.30
2019-06-27T16:01:29.819Z,28.30
2019-06-27T16:03:57.701Z,28.20
2019-06-27T16:06:25.467Z,28.20
2019-06-27T16:08:53.017Z,28.20
2019-06-27T16:11:20.273Z,28.20
2019-06-27T16:13:47.807Z,28.10
2019-06-27T16:16:15.533Z,28.00
2019-06-27T16:18:43.061Z,28.00
2019-06-27T16:21:10.818Z,27.90
2019-06-27T16:23:38.062Z,27.90
2019-06-27T16:26:05.866Z,27.90
2019-06-27T16:28:33.646Z,27.90
2019-06-27T16:31:01.126Z,27.90
2019-06-27T16:33:28.634Z,27.90
2019-06-27T16:35:56.312Z,27.90
2019-06-27T16:38:24.011Z,27.90
2019-06-27T16:40:52.083Z,27.90
2019-06-27T16:43:20.131Z,27.80
2019-06-27T16:45:47.869Z,27.80
2019-06-27T16:48:15.115Z,27.80
2019-06-27T16:50:42.681Z,27.80
2019-06-27T16:53:10.231Z,27.80
2019-06-27T16:55:38.124Z,27.80
2019-06-27T16:58:05.337Z,27.80
2019-06-27T17:00:32.731Z,27.70
2019-06-27T17:03:00.324Z,27.70
2019-06-27T17:05:27.749Z,27.70
2019-06-27T17:07:55.070Z,27.60
2019-06-27T17:10:22.402Z,27.60
2019-06-27T17:12:49.929Z,27.60
2019-06-27T17:15:17.365Z,27.60
2019-06-27T17:17:44.985Z,27.50
2019-06-27T17:20:12.367Z,27.50
2019-06-27T17:22:40.346Z,27.50
2019-06-27T17:25:08.574Z,27.40
2019-06-27T17:27:36.049Z,27.40
2019-06-27T17:30:04.373Z,27.40
2019-06-27T17:32:31.891Z,27.40
2019-06-27T17:34:59.410Z,27.40
2019-06-27T17:37:26.999Z,27.30
2019-06-27T17:39:54.369Z,27.30
2019-06-27T17:42:22.017Z,27.20
2019-06-27T17:44:49.488Z,27.20
2019-06-27T17:47:17.098Z,27.20
2019-06-27T17:49:48.978Z,27.10
2019-06-27T17:52:14.721Z,27.10
2019-06-27T17:54:42.042Z,27.00
2019-06-27T17:57:10.259Z,27.00
2019-06-27T17:59:37.966Z,26.90
2019-06-27T18:02:05.618Z,26.90
2019-06-27T18:04:33.246Z,26.80
2019-06-27T18:07:13.457Z,26.70
2019-06-27T18:09:30.045Z,26.70
2019-06-27T18:11:57.418Z,26.70
2019-06-27T18:14:24.870Z,26.60
2019-06-27T18:16:52.511Z,26.60
2019-06-27T18:19:20.575Z,26.60
2019-06-27T18:21:47.926Z,26.50
2019-06-27T18:24:15.811Z,26.50
2019-06-27T18:26:43.241Z,26.50
2019-06-27T18:29:10.514Z,26.40
2019-06-27T18:31:38.291Z,26.40
2019-06-27T18:34:05.809Z,26.30
2019-06-27T18:36:33.661Z,26.30
2019-06-27T18:39:00.886Z,26.20
2019-06-27T18:41:28.539Z,26.10
2019-06-27T18:43:56.170Z,26.10
2019-06-27T18:46:23.549Z,26.00
2019-06-27T18:48:52.048Z,26.00
2019-06-27T18:51:19.801Z,26.00
2019-06-27T18:53:47.393Z,25.90
2019-06-27T18:56:14.897Z,25.90
2019-06-27T18:58:42.263Z,25.80
2019-06-27T19:01:09.528Z,25.80
2019-06-27T19:03:37.069Z,25.70
2019-06-27T19:06:04.339Z,25.60
2019-06-27T19:08:31.747Z,25.50
2019-06-27T19:10:58.963Z,25.50
2019-06-27T19:13:26.598Z,25.40
2019-06-27T19:15:54.433Z,25.30
2019-06-27T19:18:40.010Z,25.20
2019-06-27T19:21:10.608Z,25.20
2019-06-27T19:23:49.771Z,25.10
2019-06-27T19:26:17.241Z,25.10
2019-06-27T19:28:44.585Z,25.00
2019-06-27T19:31:12.203Z,24.90
2019-06-27T19:33:40.098Z,24.80
2019-06-27T19:36:07.594Z,24.80
2019-06-27T19:38:35.452Z,24.70
2019-06-27T19:41:04.369Z,24.70
2019-06-27T19:43:31.938Z,24.60
2019-06-27T19:45:59.647Z,24.60
2019-06-27T19:48:27.249Z,24.50
2019-06-27T19:50:55.740Z,24.40
2019-06-27T19:53:23.715Z,24.40
2019-06-27T19:55:51.201Z,24.20
2019-06-27T19:58:18.962Z,24.20
2019-06-27T20:00:46.814Z,24.10
2019-06-27T20:03:14.367Z,24.10
2019-06-27T20:05:41.626Z,24.00
2019-06-27T20:08:18.970Z,24.00
2019-06-27T20:10:38.027Z,23.90
2019-06-27T20:13:05.690Z,23.90
2019-06-27T20:15:33.282Z,23.80
2019-06-27T20:18:00.630Z,23.80
2019-06-27T20:20:28.519Z,23.70
2019-06-27T20:22:56.549Z,23.60
2019-06-27T20:25:23.946Z,23.60
2019-06-27T20:27:51.966Z,23.50
2019-06-27T20:30:20.575Z,23.50
2019-06-27T20:32:48.378Z,23.50
2019-06-27T20:35:15.592Z,23.40
2019-06-27T20:37:42.954Z,23.30
2019-06-27T20:40:10.714Z,23.30
2019-06-27T20:42:38.576Z,23.20
2019-06-27T20:45:06.158Z,23.10
2019-06-27T20:47:33.954Z,23.10
2019-06-27T20:50:01.465Z,23.00
2019-06-27T20:52:28.903Z,22.90
2019-06-27T20:54:56.319Z,22.80
2019-06-27T20:57:23.572Z,22.80
2019-06-27T20:59:51.333Z,22.70
2019-06-27T21:02:18.832Z,22.70
2019-06-27T21:04:46.346Z,22.60
2019-06-27T21:07:14.116Z,22.60
2019-06-27T21:09:41.946Z,22.60
2019-06-27T21:12:09.978Z,22.60
2019-06-27T21:14:37.360Z,22.60
2019-06-27T21:17:04.764Z,22.50
2019-06-27T21:19:32.425Z,22.50
2019-06-27T21:21:59.774Z,22.50
2019-06-27T21:24:27.162Z,22.50
2019-06-27T21:26:54.473Z,22.40
2019-06-27T21:29:21.722Z,22.40
2019-06-27T21:31:48.979Z,22.30
2019-06-27T21:34:16.742Z,22.30
2019-06-27T21:36:44.535Z,22.30
2019-06-27T21:39:12.045Z,22.20
2019-06-27T21:41:39.581Z,22.20
2019-06-27T21:44:07.043Z,22.10
2019-06-27T21:46:34.819Z,22.10
2019-06-27T21:49:02.445Z,22.00
2019-06-27T21:51:30.477Z,21.90
2019-06-27T21:53:57.957Z,21.80
2019-06-27T21:56:25.470Z,21.80
2019-06-27T21:58:52.790Z,21.70
2019-06-27T22:01:20.673Z,21.70
2019-06-27T22:03:48.230Z,21.70
2019-06-27T22:06:15.830Z,21.70
2019-06-27T22:08:43.044Z,21.60
2019-06-27T22:11:10.441Z,21.60
2019-06-27T22:13:38.244Z,21.50
2019-06-27T22:16:05.623Z,21.40
2019-06-27T22:18:33.062Z,21.40
2019-06-27T22:21:01.015Z,21.30
2019-06-27T22:23:28.270Z,21.20
2019-06-27T22:25:55.875Z,21.20
2019-06-27T22:28:23.246Z,21.10
2019-06-27T22:30:50.502Z,21.00
2019-06-27T22:33:18.071Z,21.00
2019-06-27T22:35:46.062Z,20.90
2019-06-27T22:38:31.813Z,20.80
2019-06-27T22:41:17.207Z,20.80
2019-06-27T22:44:04.805Z,20.80
2019-06-27T22:46:50.231Z,20.70
2019-06-27T22:49:17.289Z,20.70
2019-06-27T22:52:11.629Z,20.60
2019-06-27T22:54:39.868Z,20.60
2019-06-27T22:57:07.390Z,20.50
2019-06-27T22:59:34.874Z,20.40
2019-06-27T23:02:02.535Z,20.30
2019-06-27T23:04:30.033Z,20.30
2019-06-27T23:06:57.548Z,20.30
2019-06-27T23:09:25.177Z,20.20
2019-06-27T23:11:52.835Z,20.20
2019-06-27T23:14:20.562Z,20.10
2019-06-27T23:16:48.411Z,20.00
2019-06-27T23:19:16.269Z,20.00
2019-06-27T23:21:43.910Z,19.90
2019-06-27T23:24:11.686Z,19.80
2019-06-27T23:26:38.937Z,19.80
2019-06-27T23:29:06.285Z,19.70
2019-06-27T23:31:33.827Z,19.60
2019-06-27T23:34:01.100Z,19.60
2019-06-27T23:36:28.525Z,19.50
2019-06-27T23:38:56.141Z,19.50
2019-06-27T23:41:23.622Z,19.40
2019-06-27T23:43:51.129Z,19.40
2019-06-27T23:46:36.659Z,19.30
2019-06-27T23:49:04.141Z,19.30
2019-06-27T23:51:32.004Z,19.30
2019-06-27T23:53:59.337Z,19.20
2019-06-27T23:56:26.993Z,19.20
2019-06-27T23:58:54.611Z,19.20
